sensor_id;sensor_type;location;lat;lon;timestamp;P1;durP1;ratioP1;P2;durP2;ratioP2
3343;SDS011;1685;53.104;8.228;2023-11-21T00:00:33;38.57;;;13.77;;
3343;SDS011;1685;53.104;8.228;2023-11-21T00:03:01;24.10;;;13.27;;
3343;SDS011;1685;53.104;8.228;2023-11-21T00:05:29;27.47;;;12.50;;
3343;SDS011;1685;53.104;8.228;2023-11-21T00:07:56;35.00;;;13.80;;
3343;SDS011;1685;53.104;8.228;2023-11-21T00:10:23;26.27;;;12.80;;
3343;SDS011;1685;53.104;8.228;2023-11-21T00:12:50;29.60;;;12.77;;
3343;SDS011;1685;53.104;8.228;2023-11-21T00:15:20;30.73;;;13.63;;
3343;SDS011;1685;53.104;8.228;2023-11-21T00:17:47;36.63;;;14.77;;
3343;SDS011;1685;53.104;8.228;2023-11-21T00:20:15;34.00;;;14.93;;
3343;SDS011;1685;53.104;8.228;2023-11-21T00:22:42;21.93;;;12.80;;
3343;SDS011;1685;53.104;8.228;2023-11-21T00:25:10;38.47;;;14.90;;
3343;SDS011;1685;53.104;8.228;2023-11-21T00:27:37;29.03;;;12.63;;
3343;SDS011;1685;53.104;8.228;2023-11-21T00:30:05;29.10;;;13.73;;
3343;SDS011;1685;53.104;8.228;2023-11-21T00:32:34;25.53;;;13.20;;
3343;SDS011;1685;53.104;8.228;2023-11-21T00:35:01;30.50;;;13.87;;
3343;SDS011;1685;53.104;8.228;2023-11-21T00:37:30;29.13;;;13.17;;
3343;SDS011;1685;53.104;8.228;2023-11-21T00:39:57;37.00;;;15.37;;
3343;SDS011;1685;53.104;8.228;2023-11-21T00:42:24;37.40;;;16.20;;
3343;SDS011;1685;53.104;8.228;2023-11-21T00:44:51;29.40;;;14.13;;
3343;SDS011;1685;53.104;8.228;2023-11-21T00:47:18;37.97;;;14.10;;
3343;SDS011;1685;53.104;8.228;2023-11-21T00:49:45;30.30;;;13.90;;
3343;SDS011;1685;53.104;8.228;2023-11-21T00:52:14;25.93;;;12.97;;
3343;SDS011;1685;53.104;8.228;2023-11-21T00:54:42;27.10;;;13.30;;
3343;SDS011;1685;53.104;8.228;2023-11-21T00:57:09;34.23;;;14.13;;
3343;SDS011;1685;53.104;8.228;2023-11-21T00:59:37;35.40;;;13.83;;
3343;SDS011;1685;53.104;8.228;2023-11-21T01:02:04;34.57;;;14.27;;
3343;SDS011;1685;53.104;8.228;2023-11-21T01:04:35;26.20;;;14.23;;
3343;SDS011;1685;53.104;8.228;2023-11-21T01:07:02;27.13;;;13.63;;
3343;SDS011;1685;53.104;8.228;2023-11-21T01:09:30;38.23;;;15.60;;
3343;SDS011;1685;53.104;8.228;2023-11-21T01:11:59;44.53;;;15.50;;
3343;SDS011;1685;53.104;8.228;2023-11-21T01:14:25;33.20;;;14.03;;
3343;SDS011;1685;53.104;8.228;2023-11-21T01:16:53;32.87;;;14.87;;
3343;SDS011;1685;53.104;8.228;2023-11-21T01:19:20;38.87;;;15.03;;
3343;SDS011;1685;53.104;8.228;2023-11-21T01:21:47;39.17;;;14.80;;
3343;SDS011;1685;53.104;8.228;2023-11-21T01:24:14;28.00;;;15.27;;
3343;SDS011;1685;53.104;8.228;2023-11-21T01:26:41;27.13;;;16.03;;
3343;SDS011;1685;53.104;8.228;2023-11-21T01:29:09;39.50;;;15.07;;
3343;SDS011;1685;53.104;8.228;2023-11-21T01:31:36;28.80;;;15.97;;
3343;SDS011;1685;53.104;8.228;2023-11-21T01:34:03;40.30;;;15.40;;
3343;SDS011;1685;53.104;8.228;2023-11-21T01:36:30;39.30;;;17.63;;
3343;SDS011;1685;53.104;8.228;2023-11-21T01:38:58;42.17;;;16.37;;
3343;SDS011;1685;53.104;8.228;2023-11-21T01:41:25;38.63;;;17.60;;
3343;SDS011;1685;53.104;8.228;2023-11-21T01:43:53;36.20;;;15.80;;
3343;SDS011;1685;53.104;8.228;2023-11-21T01:46:21;34.30;;;15.83;;
3343;SDS011;1685;53.104;8.228;2023-11-21T01:48:49;37.60;;;16.80;;
3343;SDS011;1685;53.104;8.228;2023-11-21T01:51:16;39.87;;;18.17;;
3343;SDS011;1685;53.104;8.228;2023-11-21T01:53:44;36.83;;;16.80;;
3343;SDS011;1685;53.104;8.228;2023-11-21T01:56:11;37.40;;;16.83;;
3343;SDS011;1685;53.104;8.228;2023-11-21T01:58:39;35.07;;;16.90;;
3343;SDS011;1685;53.104;8.228;2023-11-21T02:01:06;38.43;;;17.60;;
3343;SDS011;1685;53.104;8.228;2023-11-21T02:03:36;36.47;;;15.73;;
3343;SDS011;1685;53.104;8.228;2023-11-21T02:06:03;36.60;;;16.70;;
3343;SDS011;1685;53.104;8.228;2023-11-21T02:08:31;30.17;;;14.93;;
3343;SDS011;1685;53.104;8.228;2023-11-21T02:10:58;40.17;;;17.00;;
3343;SDS011;1685;53.104;8.228;2023-11-21T02:13:25;43.93;;;18.10;;
3343;SDS011;1685;53.104;8.228;2023-11-21T02:15:52;47.87;;;18.73;;
3343;SDS011;1685;53.104;8.228;2023-11-21T02:18:19;46.43;;;17.57;;
3343;SDS011;1685;53.104;8.228;2023-11-21T02:20:48;31.90;;;15.90;;
3343;SDS011;1685;53.104;8.228;2023-11-21T02:23:17;36.53;;;16.70;;
3343;SDS011;1685;53.104;8.228;2023-11-21T02:25:44;30.27;;;14.93;;
3343;SDS011;1685;53.104;8.228;2023-11-21T02:28:12;26.40;;;14.70;;
3343;SDS011;1685;53.104;8.228;2023-11-21T02:30:41;36.53;;;17.50;;
3343;SDS011;1685;53.104;8.228;2023-11-21T02:33:08;38.90;;;17.17;;
3343;SDS011;1685;53.104;8.228;2023-11-21T02:35:37;39.27;;;16.47;;
3343;SDS011;1685;53.104;8.228;2023-11-21T02:38:04;40.67;;;17.10;;
3343;SDS011;1685;53.104;8.228;2023-11-21T02:40:33;42.00;;;16.27;;
3343;SDS011;1685;53.104;8.228;2023-11-21T02:43:00;39.07;;;17.50;;
3343;SDS011;1685;53.104;8.228;2023-11-21T02:45:27;38.03;;;16.67;;
3343;SDS011;1685;53.104;8.228;2023-11-21T02:47:54;42.43;;;19.30;;
3343;SDS011;1685;53.104;8.228;2023-11-21T02:50:21;52.47;;;18.40;;
3343;SDS011;1685;53.104;8.228;2023-11-21T02:52:48;53.77;;;20.47;;
3343;SDS011;1685;53.104;8.228;2023-11-21T02:55:16;34.63;;;17.83;;
3343;SDS011;1685;53.104;8.228;2023-11-21T02:57:44;44.63;;;20.60;;
3343;SDS011;1685;53.104;8.228;2023-11-21T03:00:11;39.67;;;19.53;;
3343;SDS011;1685;53.104;8.228;2023-11-21T03:02:40;42.50;;;20.03;;
3343;SDS011;1685;53.104;8.228;2023-11-21T03:05:07;35.27;;;18.30;;
3343;SDS011;1685;53.104;8.228;2023-11-21T03:07:35;55.90;;;20.67;;
3343;SDS011;1685;53.104;8.228;2023-11-21T03:10:02;42.77;;;18.80;;
3343;SDS011;1685;53.104;8.228;2023-11-21T03:12:29;45.17;;;20.33;;
3343;SDS011;1685;53.104;8.228;2023-11-21T03:14:58;56.13;;;21.43;;
3343;SDS011;1685;53.104;8.228;2023-11-21T03:17:24;42.77;;;20.73;;
3343;SDS011;1685;53.104;8.228;2023-11-21T03:19:51;61.70;;;21.33;;
3343;SDS011;1685;53.104;8.228;2023-11-21T03:22:19;40.17;;;20.23;;
3343;SDS011;1685;53.104;8.228;2023-11-21T03:24:46;38.17;;;19.20;;
3343;SDS011;1685;53.104;8.228;2023-11-21T03:27:14;41.70;;;21.30;;
3343;SDS011;1685;53.104;8.228;2023-11-21T03:29:41;40.80;;;20.90;;
3343;SDS011;1685;53.104;8.228;2023-11-21T03:32:10;40.20;;;19.37;;
3343;SDS011;1685;53.104;8.228;2023-11-21T03:34:52;46.70;;;21.57;;
3343;SDS011;1685;53.104;8.228;2023-11-21T03:37:19;47.50;;;19.80;;
3343;SDS011;1685;53.104;8.228;2023-11-21T03:39:46;45.23;;;19.40;;
3343;SDS011;1685;53.104;8.228;2023-11-21T03:42:14;38.50;;;19.50;;
3343;SDS011;1685;53.104;8.228;2023-11-21T03:44:41;35.23;;;16.90;;
3343;SDS011;1685;53.104;8.228;2023-11-21T03:47:09;39.13;;;17.17;;
3343;SDS011;1685;53.104;8.228;2023-11-21T03:49:36;37.27;;;17.33;;
3343;SDS011;1685;53.104;8.228;2023-11-21T03:52:03;37.03;;;17.93;;
3343;SDS011;1685;53.104;8.228;2023-11-21T03:54:30;42.93;;;18.00;;
3343;SDS011;1685;53.104;8.228;2023-11-21T03:56:57;51.43;;;18.87;;
3343;SDS011;1685;53.104;8.228;2023-11-21T03:59:24;30.90;;;17.23;;
3343;SDS011;1685;53.104;8.228;2023-11-21T04:01:51;44.60;;;16.57;;
3343;SDS011;1685;53.104;8.228;2023-11-21T04:04:20;44.13;;;16.60;;
3343;SDS011;1685;53.104;8.228;2023-11-21T04:06:46;58.50;;;17.83;;
3343;SDS011;1685;53.104;8.228;2023-11-21T04:09:13;53.63;;;18.57;;
3343;SDS011;1685;53.104;8.228;2023-11-21T04:11:40;48.80;;;17.40;;
3343;SDS011;1685;53.104;8.228;2023-11-21T04:14:07;47.37;;;17.40;;
3343;SDS011;1685;53.104;8.228;2023-11-21T04:16:35;47.23;;;16.53;;
3343;SDS011;1685;53.104;8.228;2023-11-21T04:19:02;55.57;;;18.67;;
3343;SDS011;1685;53.104;8.228;2023-11-21T04:21:30;57.00;;;17.93;;
3343;SDS011;1685;53.104;8.228;2023-11-21T04:23:58;46.23;;;17.23;;
3343;SDS011;1685;53.104;8.228;2023-11-21T04:26:25;53.73;;;18.30;;
3343;SDS011;1685;53.104;8.228;2023-11-21T04:28:52;52.37;;;18.90;;
3343;SDS011;1685;53.104;8.228;2023-11-21T04:31:19;52.37;;;18.67;;
3343;SDS011;1685;53.104;8.228;2023-11-21T04:33:46;59.10;;;19.07;;
3343;SDS011;1685;53.104;8.228;2023-11-21T04:36:13;64.00;;;20.27;;
3343;SDS011;1685;53.104;8.228;2023-11-21T04:38:41;62.00;;;20.20;;
3343;SDS011;1685;53.104;8.228;2023-11-21T04:41:09;69.73;;;19.97;;
3343;SDS011;1685;53.104;8.228;2023-11-21T04:43:36;66.80;;;21.47;;
3343;SDS011;1685;53.104;8.228;2023-11-21T04:46:04;71.53;;;21.57;;
3343;SDS011;1685;53.104;8.228;2023-11-21T04:48:31;64.63;;;21.80;;
3343;SDS011;1685;53.104;8.228;2023-11-21T04:51:00;61.47;;;21.87;;
3343;SDS011;1685;53.104;8.228;2023-11-21T04:53:26;75.53;;;23.97;;
3343;SDS011;1685;53.104;8.228;2023-11-21T04:55:55;64.93;;;23.77;;
3343;SDS011;1685;53.104;8.228;2023-11-21T04:58:22;72.13;;;23.33;;
3343;SDS011;1685;53.104;8.228;2023-11-21T05:00:49;67.77;;;24.67;;
3343;SDS011;1685;53.104;8.228;2023-11-21T05:03:16;69.70;;;24.43;;
3343;SDS011;1685;53.104;8.228;2023-11-21T05:05:43;83.63;;;26.67;;
3343;SDS011;1685;53.104;8.228;2023-11-21T05:08:10;74.03;;;25.50;;
3343;SDS011;1685;53.104;8.228;2023-11-21T05:10:38;73.40;;;26.80;;
3343;SDS011;1685;53.104;8.228;2023-11-21T05:13:07;74.83;;;26.23;;
3343;SDS011;1685;53.104;8.228;2023-11-21T05:15:35;75.90;;;26.50;;
3343;SDS011;1685;53.104;8.228;2023-11-21T05:18:02;75.37;;;24.70;;
3343;SDS011;1685;53.104;8.228;2023-11-21T05:20:30;66.27;;;23.53;;
3343;SDS011;1685;53.104;8.228;2023-11-21T05:22:56;70.50;;;25.70;;
3343;SDS011;1685;53.104;8.228;2023-11-21T05:25:23;63.27;;;22.77;;
3343;SDS011;1685;53.104;8.228;2023-11-21T05:27:51;52.63;;;22.93;;
3343;SDS011;1685;53.104;8.228;2023-11-21T05:30:19;64.60;;;21.77;;
3343;SDS011;1685;53.104;8.228;2023-11-21T05:32:47;59.60;;;20.40;;
3343;SDS011;1685;53.104;8.228;2023-11-21T05:35:14;57.60;;;20.87;;
3343;SDS011;1685;53.104;8.228;2023-11-21T05:37:41;62.57;;;21.70;;
3343;SDS011;1685;53.104;8.228;2023-11-21T05:40:09;59.37;;;23.80;;
3343;SDS011;1685;53.104;8.228;2023-11-21T05:42:36;57.07;;;22.70;;
3343;SDS011;1685;53.104;8.228;2023-11-21T05:45:04;47.87;;;19.47;;
3343;SDS011;1685;53.104;8.228;2023-11-21T05:47:37;49.27;;;20.53;;
3343;SDS011;1685;53.104;8.228;2023-11-21T05:50:06;59.30;;;23.37;;
3343;SDS011;1685;53.104;8.228;2023-11-21T05:52:37;50.50;;;21.83;;
3343;SDS011;1685;53.104;8.228;2023-11-21T05:55:04;59.00;;;21.03;;
3343;SDS011;1685;53.104;8.228;2023-11-21T05:57:32;59.87;;;24.07;;
3343;SDS011;1685;53.104;8.228;2023-11-21T06:00:01;64.43;;;23.67;;
3343;SDS011;1685;53.104;8.228;2023-11-21T06:02:37;65.43;;;23.87;;
3343;SDS011;1685;53.104;8.228;2023-11-21T06:05:04;74.30;;;24.10;;
3343;SDS011;1685;53.104;8.228;2023-11-21T06:07:31;69.43;;;25.70;;
3343;SDS011;1685;53.104;8.228;2023-11-21T06:09:58;59.20;;;23.27;;
3343;SDS011;1685;53.104;8.228;2023-11-21T06:12:27;55.00;;;21.87;;
3343;SDS011;1685;53.104;8.228;2023-11-21T06:14:55;45.90;;;22.13;;
3343;SDS011;1685;53.104;8.228;2023-11-21T06:17:22;42.30;;;21.00;;
3343;SDS011;1685;53.104;8.228;2023-11-21T06:19:51;45.17;;;20.20;;
3343;SDS011;1685;53.104;8.228;2023-11-21T06:22:18;44.47;;;21.00;;
3343;SDS011;1685;53.104;8.228;2023-11-21T06:24:45;39.47;;;19.57;;
3343;SDS011;1685;53.104;8.228;2023-11-21T06:27:12;33.70;;;18.47;;
3343;SDS011;1685;53.104;8.228;2023-11-21T06:29:39;36.43;;;19.70;;
3343;SDS011;1685;53.104;8.228;2023-11-21T06:32:07;39.83;;;18.00;;
3343;SDS011;1685;53.104;8.228;2023-11-21T06:34:34;28.50;;;17.77;;
3343;SDS011;1685;53.104;8.228;2023-11-21T06:37:03;35.83;;;17.30;;
3343;SDS011;1685;53.104;8.228;2023-11-21T06:39:29;29.10;;;17.50;;
3343;SDS011;1685;53.104;8.228;2023-11-21T06:41:57;27.80;;;16.70;;
3343;SDS011;1685;53.104;8.228;2023-11-21T06:44:25;28.07;;;16.47;;
3343;SDS011;1685;53.104;8.228;2023-11-21T06:46:53;35.40;;;17.40;;
3343;SDS011;1685;53.104;8.228;2023-11-21T06:49:20;28.77;;;16.77;;
3343;SDS011;1685;53.104;8.228;2023-11-21T06:51:48;27.87;;;15.43;;
3343;SDS011;1685;53.104;8.228;2023-11-21T06:54:16;28.17;;;15.07;;
3343;SDS011;1685;53.104;8.228;2023-11-21T06:56:43;24.40;;;15.20;;
3343;SDS011;1685;53.104;8.228;2023-11-21T06:59:10;26.90;;;14.80;;
3343;SDS011;1685;53.104;8.228;2023-11-21T07:01:37;28.40;;;15.40;;
3343;SDS011;1685;53.104;8.228;2023-11-21T07:04:06;22.70;;;14.70;;
3343;SDS011;1685;53.104;8.228;2023-11-21T07:06:34;25.37;;;14.37;;
3343;SDS011;1685;53.104;8.228;2023-11-21T07:09:03;22.33;;;13.20;;
3343;SDS011;1685;53.104;8.228;2023-11-21T07:11:31;18.60;;;12.80;;
3343;SDS011;1685;53.104;8.228;2023-11-21T07:13:58;17.73;;;11.63;;
3343;SDS011;1685;53.104;8.228;2023-11-21T07:16:27;18.83;;;12.83;;
3343;SDS011;1685;53.104;8.228;2023-11-21T07:18:55;15.40;;;11.97;;
3343;SDS011;1685;53.104;8.228;2023-11-21T07:21:22;21.70;;;12.13;;
3343;SDS011;1685;53.104;8.228;2023-11-21T07:23:49;16.40;;;10.53;;
3343;SDS011;1685;53.104;8.228;2023-11-21T07:26:16;14.67;;;11.60;;
3343;SDS011;1685;53.104;8.228;2023-11-21T07:28:45;16.43;;;11.20;;
3343;SDS011;1685;53.104;8.228;2023-11-21T07:31:12;15.13;;;10.87;;
3343;SDS011;1685;53.104;8.228;2023-11-21T07:33:39;14.67;;;10.77;;
3343;SDS011;1685;53.104;8.228;2023-11-21T07:36:06;14.30;;;10.37;;
3343;SDS011;1685;53.104;8.228;2023-11-21T07:38:35;14.07;;;10.33;;
3343;SDS011;1685;53.104;8.228;2023-11-21T07:41:02;12.10;;;8.90;;
3343;SDS011;1685;53.104;8.228;2023-11-21T07:43:29;11.43;;;9.53;;
3343;SDS011;1685;53.104;8.228;2023-11-21T07:46:01;14.20;;;10.20;;
3343;SDS011;1685;53.104;8.228;2023-11-21T07:48:28;12.20;;;10.10;;
3343;SDS011;1685;53.104;8.228;2023-11-21T07:50:56;13.93;;;10.07;;
3343;SDS011;1685;53.104;8.228;2023-11-21T07:53:23;12.97;;;9.17;;
3343;SDS011;1685;53.104;8.228;2023-11-21T07:55:53;12.43;;;9.50;;
3343;SDS011;1685;53.104;8.228;2023-11-21T07:58:23;10.53;;;8.20;;
3343;SDS011;1685;53.104;8.228;2023-11-21T08:00:51;13.33;;;9.43;;
3343;SDS011;1685;53.104;8.228;2023-11-21T08:03:19;12.60;;;9.63;;
3343;SDS011;1685;53.104;8.228;2023-11-21T08:05:47;16.30;;;10.57;;
3343;SDS011;1685;53.104;8.228;2023-11-21T08:08:14;14.70;;;10.43;;
3343;SDS011;1685;53.104;8.228;2023-11-21T08:10:43;14.57;;;11.00;;
3343;SDS011;1685;53.104;8.228;2023-11-21T08:13:13;20.10;;;11.87;;
3343;SDS011;1685;53.104;8.228;2023-11-21T08:15:42;19.30;;;11.90;;
3343;SDS011;1685;53.104;8.228;2023-11-21T08:18:11;17.97;;;12.63;;
3343;SDS011;1685;53.104;8.228;2023-11-21T08:20:41;13.60;;;10.67;;
3343;SDS011;1685;53.104;8.228;2023-11-21T08:23:08;19.00;;;11.90;;
3343;SDS011;1685;53.104;8.228;2023-11-21T08:25:35;21.10;;;10.53;;
3343;SDS011;1685;53.104;8.228;2023-11-21T08:28:02;15.13;;;11.63;;
3343;SDS011;1685;53.104;8.228;2023-11-21T08:30:30;20.40;;;12.60;;
3343;SDS011;1685;53.104;8.228;2023-11-21T08:32:57;16.63;;;11.90;;
3343;SDS011;1685;53.104;8.228;2023-11-21T08:35:24;17.67;;;12.60;;
3343;SDS011;1685;53.104;8.228;2023-11-21T08:37:53;19.60;;;12.90;;
3343;SDS011;1685;53.104;8.228;2023-11-21T08:40:20;17.73;;;13.10;;
3343;SDS011;1685;53.104;8.228;2023-11-21T08:42:47;18.13;;;11.87;;
3343;SDS011;1685;53.104;8.228;2023-11-21T08:45:14;15.63;;;11.47;;
3343;SDS011;1685;53.104;8.228;2023-11-21T08:47:42;19.93;;;12.10;;
3343;SDS011;1685;53.104;8.228;2023-11-21T08:50:10;19.33;;;12.10;;
3343;SDS011;1685;53.104;8.228;2023-11-21T08:52:38;18.63;;;12.07;;
3343;SDS011;1685;53.104;8.228;2023-11-21T08:55:07;16.40;;;11.60;;
3343;SDS011;1685;53.104;8.228;2023-11-21T08:57:37;17.60;;;12.43;;
3343;SDS011;1685;53.104;8.228;2023-11-21T09:00:05;19.10;;;12.47;;
3343;SDS011;1685;53.104;8.228;2023-11-21T09:02:35;18.77;;;12.27;;
3343;SDS011;1685;53.104;8.228;2023-11-21T09:05:02;15.70;;;11.30;;
3343;SDS011;1685;53.104;8.228;2023-11-21T09:07:30;16.40;;;10.93;;
3343;SDS011;1685;53.104;8.228;2023-11-21T09:09:57;19.33;;;11.13;;
3343;SDS011;1685;53.104;8.228;2023-11-21T09:12:25;17.20;;;12.40;;
3343;SDS011;1685;53.104;8.228;2023-11-21T09:14:52;18.47;;;12.47;;
3343;SDS011;1685;53.104;8.228;2023-11-21T09:17:19;16.03;;;11.53;;
3343;SDS011;1685;53.104;8.228;2023-11-21T09:19:46;16.40;;;11.77;;
3343;SDS011;1685;53.104;8.228;2023-11-21T09:22:16;17.23;;;11.43;;
3343;SDS011;1685;53.104;8.228;2023-11-21T09:24:43;19.10;;;11.07;;
3343;SDS011;1685;53.104;8.228;2023-11-21T09:27:10;19.00;;;12.20;;
3343;SDS011;1685;53.104;8.228;2023-11-21T09:29:39;15.80;;;11.70;;
3343;SDS011;1685;53.104;8.228;2023-11-21T09:32:05;12.90;;;10.37;;
3343;SDS011;1685;53.104;8.228;2023-11-21T09:34:33;16.23;;;11.73;;
3343;SDS011;1685;53.104;8.228;2023-11-21T09:37:03;15.90;;;11.40;;
3343;SDS011;1685;53.104;8.228;2023-11-21T09:39:31;17.80;;;10.93;;
3343;SDS011;1685;53.104;8.228;2023-11-21T09:41:59;16.50;;;11.07;;
3343;SDS011;1685;53.104;8.228;2023-11-21T09:44:36;20.43;;;12.20;;
3343;SDS011;1685;53.104;8.228;2023-11-21T09:47:10;15.80;;;12.30;;
3343;SDS011;1685;53.104;8.228;2023-11-21T09:49:41;19.47;;;11.80;;
3343;SDS011;1685;53.104;8.228;2023-11-21T09:52:12;15.80;;;11.37;;
3343;SDS011;1685;53.104;8.228;2023-11-21T09:54:48;14.90;;;11.20;;
3343;SDS011;1685;53.104;8.228;2023-11-21T09:57:16;18.53;;;12.00;;
3343;SDS011;1685;53.104;8.228;2023-11-21T09:59:44;15.30;;;11.90;;
3343;SDS011;1685;53.104;8.228;2023-11-21T10:02:14;14.30;;;10.80;;
3343;SDS011;1685;53.104;8.228;2023-11-21T10:04:43;16.37;;;11.50;;
3343;SDS011;1685;53.104;8.228;2023-11-21T10:07:10;14.83;;;11.40;;
3343;SDS011;1685;53.104;8.228;2023-11-21T10:09:37;15.43;;;11.57;;
3343;SDS011;1685;53.104;8.228;2023-11-21T10:12:05;14.30;;;11.00;;
3343;SDS011;1685;53.104;8.228;2023-11-21T10:14:33;12.53;;;9.80;;
3343;SDS011;1685;53.104;8.228;2023-11-21T10:17:00;17.60;;;11.50;;
3343;SDS011;1685;53.104;8.228;2023-11-21T10:19:29;16.20;;;11.20;;
3343;SDS011;1685;53.104;8.228;2023-11-21T10:21:57;16.13;;;10.80;;
3343;SDS011;1685;53.104;8.228;2023-11-21T10:24:28;14.20;;;9.97;;
3343;SDS011;1685;53.104;8.228;2023-11-21T10:26:55;11.90;;;10.00;;
3343;SDS011;1685;53.104;8.228;2023-11-21T10:29:22;16.37;;;10.83;;
3343;SDS011;1685;53.104;8.228;2023-11-21T10:31:51;13.17;;;10.57;;
3343;SDS011;1685;53.104;8.228;2023-11-21T10:34:22;15.30;;;10.40;;
3343;SDS011;1685;53.104;8.228;2023-11-21T10:36:51;14.20;;;10.10;;
3343;SDS011;1685;53.104;8.228;2023-11-21T10:39:18;15.23;;;10.40;;
3343;SDS011;1685;53.104;8.228;2023-11-21T10:41:45;14.27;;;10.93;;
3343;SDS011;1685;53.104;8.228;2023-11-21T10:44:13;12.88;;;9.50;;
3343;SDS011;1685;53.104;8.228;2023-11-21T10:46:45;14.07;;;11.03;;
3343;SDS011;1685;53.104;8.228;2023-11-21T10:49:15;14.27;;;10.47;;
3343;SDS011;1685;53.104;8.228;2023-11-21T10:51:43;15.23;;;9.73;;
3343;SDS011;1685;53.104;8.228;2023-11-21T10:54:11;10.97;;;8.97;;
3343;SDS011;1685;53.104;8.228;2023-11-21T10:56:38;13.60;;;9.90;;
3343;SDS011;1685;53.104;8.228;2023-11-21T10:59:08;11.50;;;9.50;;
3343;SDS011;1685;53.104;8.228;2023-11-21T11:01:39;18.73;;;9.90;;
3343;SDS011;1685;53.104;8.228;2023-11-21T11:04:08;13.93;;;9.60;;
3343;SDS011;1685;53.104;8.228;2023-11-21T11:06:40;14.67;;;10.60;;
3343;SDS011;1685;53.104;8.228;2023-11-21T11:09:07;15.43;;;10.60;;
3343;SDS011;1685;53.104;8.228;2023-11-21T11:11:39;13.93;;;10.13;;
3343;SDS011;1685;53.104;8.228;2023-11-21T11:14:09;16.73;;;11.13;;
3343;SDS011;1685;53.104;8.228;2023-11-21T11:16:38;14.20;;;10.20;;
3343;SDS011;1685;53.104;8.228;2023-11-21T11:19:08;11.00;;;9.23;;
3343;SDS011;1685;53.104;8.228;2023-11-21T11:21:38;14.20;;;10.03;;
3343;SDS011;1685;53.104;8.228;2023-11-21T11:24:17;11.40;;;9.50;;
3343;SDS011;1685;53.104;8.228;2023-11-21T11:27:01;12.80;;;9.17;;
3343;SDS011;1685;53.104;8.228;2023-11-21T11:29:40;16.60;;;12.13;;
3343;SDS011;1685;53.104;8.228;2023-11-21T11:32:16;12.50;;;10.20;;
3343;SDS011;1685;53.104;8.228;2023-11-21T11:34:53;15.90;;;10.47;;
3343;SDS011;1685;53.104;8.228;2023-11-21T11:37:26;12.70;;;10.17;;
3343;SDS011;1685;53.104;8.228;2023-11-21T11:39:53;13.00;;;10.87;;
3343;SDS011;1685;53.104;8.228;2023-11-21T11:42:23;14.87;;;9.20;;
3343;SDS011;1685;53.104;8.228;2023-11-21T11:44:53;11.53;;;7.93;;
3343;SDS011;1685;53.104;8.228;2023-11-21T11:47:22;13.67;;;9.70;;
3343;SDS011;1685;53.104;8.228;2023-11-21T11:49:56;12.27;;;9.07;;
3343;SDS011;1685;53.104;8.228;2023-11-21T11:52:34;9.10;;;8.20;;
3343;SDS011;1685;53.104;8.228;2023-11-21T11:55:02;12.23;;;8.83;;
3343;SDS011;1685;53.104;8.228;2023-11-21T11:57:31;10.40;;;8.60;;
3343;SDS011;1685;53.104;8.228;2023-11-21T12:00:08;11.13;;;8.17;;
3343;SDS011;1685;53.104;8.228;2023-11-21T12:02:37;10.20;;;8.30;;
3343;SDS011;1685;53.104;8.228;2023-11-21T12:05:07;15.73;;;9.07;;
3343;SDS011;1685;53.104;8.228;2023-11-21T12:07:45;10.43;;;7.57;;
3343;SDS011;1685;53.104;8.228;2023-11-21T12:10:13;11.37;;;9.20;;
3343;SDS011;1685;53.104;8.228;2023-11-21T12:12:45;10.53;;;8.60;;
3343;SDS011;1685;53.104;8.228;2023-11-21T12:15:12;13.10;;;9.07;;
3343;SDS011;1685;53.104;8.228;2023-11-21T12:17:41;10.73;;;9.37;;
3343;SDS011;1685;53.104;8.228;2023-11-21T12:20:09;12.37;;;9.07;;
3343;SDS011;1685;53.104;8.228;2023-11-21T12:22:41;9.30;;;8.27;;
3343;SDS011;1685;53.104;8.228;2023-11-21T12:25:09;9.77;;;8.27;;
3343;SDS011;1685;53.104;8.228;2023-11-21T12:27:41;10.93;;;8.00;;
3343;SDS011;1685;53.104;8.228;2023-11-21T12:30:10;10.77;;;7.53;;
3343;SDS011;1685;53.104;8.228;2023-11-21T12:32:39;10.20;;;7.70;;
3343;SDS011;1685;53.104;8.228;2023-11-21T12:35:06;10.37;;;6.87;;
3343;SDS011;1685;53.104;8.228;2023-11-21T12:37:34;8.30;;;7.10;;
3343;SDS011;1685;53.104;8.228;2023-11-21T12:40:02;10.17;;;7.50;;
3343;SDS011;1685;53.104;8.228;2023-11-21T12:42:29;11.57;;;6.87;;
3343;SDS011;1685;53.104;8.228;2023-11-21T12:45:08;8.10;;;6.50;;
3343;SDS011;1685;53.104;8.228;2023-11-21T12:48:04;8.53;;;6.20;;
3343;SDS011;1685;53.104;8.228;2023-11-21T12:50:34;6.97;;;5.80;;
3343;SDS011;1685;53.104;8.228;2023-11-21T12:53:02;5.63;;;4.90;;
3343;SDS011;1685;53.104;8.228;2023-11-21T12:55:31;6.13;;;5.53;;
3343;SDS011;1685;53.104;8.228;2023-11-21T12:58:03;8.57;;;5.93;;
3343;SDS011;1685;53.104;8.228;2023-11-21T13:00:35;5.60;;;4.50;;
3343;SDS011;1685;53.104;8.228;2023-11-21T13:03:05;5.10;;;4.60;;
3343;SDS011;1685;53.104;8.228;2023-11-21T13:05:33;6.27;;;5.07;;
3343;SDS011;1685;53.104;8.228;2023-11-21T13:08:04;5.10;;;4.70;;
3343;SDS011;1685;53.104;8.228;2023-11-21T13:10:33;7.10;;;4.93;;
3343;SDS011;1685;53.104;8.228;2023-11-21T13:13:03;6.80;;;5.30;;
3343;SDS011;1685;53.104;8.228;2023-11-21T13:15:34;6.87;;;5.00;;
3343;SDS011;1685;53.104;8.228;2023-11-21T13:18:06;7.23;;;5.57;;
3343;SDS011;1685;53.104;8.228;2023-11-21T13:20:36;5.70;;;5.10;;
3343;SDS011;1685;53.104;8.228;2023-11-21T13:23:06;5.60;;;5.10;;
3343;SDS011;1685;53.104;8.228;2023-11-21T13:25:34;7.40;;;6.40;;
3343;SDS011;1685;53.104;8.228;2023-11-21T13:28:02;10.60;;;6.30;;
3343;SDS011;1685;53.104;8.228;2023-11-21T13:30:29;7.43;;;5.63;;
3343;SDS011;1685;53.104;8.228;2023-11-21T13:32:59;6.03;;;5.43;;
3343;SDS011;1685;53.104;8.228;2023-11-21T13:35:31;16.90;;;5.97;;
3343;SDS011;1685;53.104;8.228;2023-11-21T13:38:03;6.50;;;5.90;;
3343;SDS011;1685;53.104;8.228;2023-11-21T13:40:31;6.50;;;5.70;;
3343;SDS011;1685;53.104;8.228;2023-11-21T13:43:04;8.37;;;5.70;;
3343;SDS011;1685;53.104;8.228;2023-11-21T13:45:34;7.33;;;5.70;;
3343;SDS011;1685;53.104;8.228;2023-11-21T13:48:03;5.93;;;5.43;;
3343;SDS011;1685;53.104;8.228;2023-11-21T13:50:32;7.27;;;5.77;;
3343;SDS011;1685;53.104;8.228;2023-11-21T13:53:01;6.57;;;5.23;;
3343;SDS011;1685;53.104;8.228;2023-11-21T13:55:35;6.63;;;5.90;;
3343;SDS011;1685;53.104;8.228;2023-11-21T13:58:04;11.20;;;6.30;;
3343;SDS011;1685;53.104;8.228;2023-11-21T14:00:35;6.00;;;5.40;;
3343;SDS011;1685;53.104;8.228;2023-11-21T14:03:08;7.73;;;5.80;;
3343;SDS011;1685;53.104;8.228;2023-11-21T14:05:42;11.23;;;6.30;;
3343;SDS011;1685;53.104;8.228;2023-11-21T14:08:11;7.00;;;6.30;;
3343;SDS011;1685;53.104;8.228;2023-11-21T14:10:41;6.80;;;5.90;;
3343;SDS011;1685;53.104;8.228;2023-11-21T14:13:10;6.50;;;5.90;;
3343;SDS011;1685;53.104;8.228;2023-11-21T14:15:39;7.33;;;6.17;;
3343;SDS011;1685;53.104;8.228;2023-11-21T14:18:11;9.40;;;6.17;;
3343;SDS011;1685;53.104;8.228;2023-11-21T14:20:42;6.37;;;5.53;;
3343;SDS011;1685;53.104;8.228;2023-11-21T14:23:09;8.43;;;6.30;;
3343;SDS011;1685;53.104;8.228;2023-11-21T14:25:37;7.87;;;6.57;;
3343;SDS011;1685;53.104;8.228;2023-11-21T14:28:04;6.90;;;5.10;;
3343;SDS011;1685;53.104;8.228;2023-11-21T14:30:31;7.07;;;5.70;;
3343;SDS011;1685;53.104;8.228;2023-11-21T14:33:01;8.10;;;5.70;;
3343;SDS011;1685;53.104;8.228;2023-11-21T14:35:29;9.13;;;6.20;;
3343;SDS011;1685;53.104;8.228;2023-11-21T14:37:57;6.43;;;5.83;;
3343;SDS011;1685;53.104;8.228;2023-11-21T14:40:25;9.73;;;5.50;;
3343;SDS011;1685;53.104;8.228;2023-11-21T14:42:57;6.20;;;5.00;;
3343;SDS011;1685;53.104;8.228;2023-11-21T14:45:25;7.80;;;6.00;;
3343;SDS011;1685;53.104;8.228;2023-11-21T14:47:53;8.60;;;6.03;;
3343;SDS011;1685;53.104;8.228;2023-11-21T14:50:32;7.30;;;6.17;;
3343;SDS011;1685;53.104;8.228;2023-11-21T14:53:16;5.97;;;5.20;;
3343;SDS011;1685;53.104;8.228;2023-11-21T14:56:03;7.20;;;6.30;;
3343;SDS011;1685;53.104;8.228;2023-11-21T14:58:30;8.20;;;6.37;;
3343;SDS011;1685;53.104;8.228;2023-11-21T15:00:57;7.80;;;7.00;;